Time;durP1;ratioP1;P1;durP2;ratioP2;P2;SDS_P1;SDS_P2;PMS_P1;PMS_P2;Temp;Humidity;BMP_temperature;BMP_pressure;BME280_temperature;BME280_humidity;BME280_pressure;Samples;Min_cycle;Max_cycle;Signal;HPM_P1;HPM_P2
2021/08/25 00:01:33;;;;;;;11.85;5.55;;;;;;;27.10;41.18;102175.84;4426299;32;20051;-68
2021/08/25 00:03:59;;;;;;;9.25;5.32;;;;;;;27.08;41.09;102166.88;4425674;32;20025;-68
2021/08/25 00:06:24;;;;;;;12.65;5.07;;;;;;;27.16;40.85;102176.63;4427909;32;20101;-68
2021/08/25 00:08:51;;;;;;;9.73;4.72;;;;;;;27.14;40.81;102169.78;4427330;32;20101;-68
2021/08/25 00:11:17;;;;;;;11.35;5.53;;;;;;;27.22;40.60;102174.53;4422542;32;20416;-68
2021/08/25 00:13:43;;;;;;;11.12;5.30;;;;;;;27.06;40.79;102169.50;4423418;32;20090;-68
2021/08/25 00:16:10;;;;;;;8.30;4.47;;;;;;;27.16;40.59;102170.06;4421989;32;20108;-68
2021/08/25 00:18:36;;;;;;;9.65;4.68;;;;;;;27.16;40.46;102165.06;4423107;32;20057;-68
2021/08/25 00:21:01;;;;;;;7.93;4.47;;;;;;;27.14;40.38;102173.47;4424559;32;20072;-69
2021/08/25 00:23:27;;;;;;;12.60;4.40;;;;;;;27.19;40.36;102164.00;4422995;32;20135;-68
2021/08/25 00:25:54;;;;;;;8.57;4.30;;;;;;;27.20;40.34;102170.59;4421390;32;20015;-68
2021/08/25 00:28:21;;;;;;;8.57;4.35;;;;;;;27.15;40.24;102168.47;4426860;32;20780;-68
2021/08/25 00:30:49;;;;;;;8.95;4.32;;;;;;;27.30;40.04;102159.63;4424772;32;20060;-68
2021/08/25 00:33:14;;;;;;;8.27;4.43;;;;;;;27.20;39.98;102153.25;4423144;32;20065;-68
2021/08/25 00:35:41;;;;;;;9.80;4.47;;;;;;;27.08;40.24;102157.41;4424992;32;20048;-68
2021/08/25 00:38:08;;;;;;;7.70;4.12;;;;;;;27.17;40.02;102152.19;4422609;32;20045;-68
2021/08/25 00:40:33;;;;;;;8.55;4.35;;;;;;;27.17;40.00;102157.19;4424584;32;20480;-68
2021/08/25 00:43:14;;;;;;;10.63;4.18;;;;;;;27.24;40.02;102153.81;4422312;32;20033;-68
2021/08/25 00:45:43;;;;;;;7.28;3.83;;;;;;;27.50;39.38;102150.72;4427534;32;20429;-68
2021/08/25 00:48:13;;;;;;;6.40;3.58;;;;;;;27.30;39.84;102154.59;4423713;32;20069;-68
2021/08/25 00:50:38;;;;;;;6.70;3.22;;;;;;;27.31;39.76;102150.44;4424109;32;20080;-68
2021/08/25 00:53:06;;;;;;;11.70;3.80;;;;;;;27.10;39.89;102149.81;4423411;32;20033;-68
2021/08/25 00:55:36;;;;;;;6.25;3.25;;;;;;;27.31;39.60;102146.75;4426376;32;20030;-68
2021/08/25 00:58:02;;;;;;;7.97;3.47;;;;;;;27.31;39.56;102140.97;4423947;32;20516;-68
2021/08/25 01:00:28;;;;;;;7.15;3.58;;;;;;;27.09;39.83;102141.66;4423178;32;20034;-68
2021/08/25 01:03:13;;;;;;;8.98;3.85;;;;;;;27.16;39.72;102132.47;4425441;32;20026;-68
2021/08/25 01:05:40;;;;;;;9.95;4.90;;;;;;;27.37;39.26;102133.88;4424096;32;20506;-68
2021/08/25 01:08:07;;;;;;;11.27;4.78;;;;;;;27.28;39.75;102130.44;4421024;32;20473;-68
2021/08/25 01:10:33;;;;;;;9.15;4.55;;;;;;;27.19;39.97;102125.66;4424197;32;20497;-68
2021/08/25 01:13:00;;;;;;;8.70;4.45;;;;;;;27.17;40.17;102123.28;4423312;32;20164;-68
2021/08/25 01:15:27;;;;;;;8.18;4.20;;;;;;;27.28;40.02;102121.75;4424943;32;20061;-68
2021/08/25 01:17:54;;;;;;;8.43;4.62;;;;;;;27.15;40.21;102120.12;4422727;32;20466;-68
2021/08/25 01:20:24;;;;;;;10.52;5.30;;;;;;;27.04;40.25;102122.19;4424982;32;20037;-68
2021/08/25 01:22:50;;;;;;;8.98;4.43;;;;;;;27.05;40.31;102113.00;4424558;32;20042;-68
2021/08/25 01:25:16;;;;;;;7.50;4.80;;;;;;;26.88;40.38;102120.06;4425114;32;20441;-68
2021/08/25 01:27:50;;;;;;;8.70;4.87;;;;;;;27.04;40.34;102122.19;4422624;32;20101;-68
2021/08/25 01:30:17;;;;;;;9.18;5.43;;;;;;;26.93;40.52;102119.25;4421717;32;20115;-68
2021/08/25 01:32:43;;;;;;;9.65;5.28;;;;;;;26.74;41.13;102121.84;4424272;32;20064;-68
2021/08/25 01:35:09;;;;;;;8.48;4.93;;;;;;;26.75;40.88;102111.84;4423067;32;20022;-68
2021/08/25 01:37:35;;;;;;;11.55;5.32;;;;;;;26.56;41.17;102115.66;4422725;32;20112;-68
2021/08/25 01:40:02;;;;;;;9.95;4.68;;;;;;;26.60;41.21;102104.66;4424123;32;20057;-68
2021/08/25 01:42:28;;;;;;;10.85;5.65;;;;;;;26.66;40.80;102111.28;4419596;32;20411;-68
2021/08/25 01:44:54;;;;;;;10.18;5.05;;;;;;;26.45;40.72;102116.38;4422785;32;20053;-68
2021/08/25 01:47:20;;;;;;;9.60;4.95;;;;;;;26.24;41.62;102117.06;4421935;32;20435;-68
2021/08/25 01:49:47;;;;;;;7.85;4.57;;;;;;;26.57;40.95;102106.47;4427628;32;20579;-68
2021/08/25 01:52:14;;;;;;;11.00;4.80;;;;;;;26.59;40.68;102106.75;4421314;32;20084;-68
2021/08/25 01:54:40;;;;;;;10.40;4.78;;;;;;;26.53;40.87;102105.16;4424860;32;20456;-68
2021/08/25 01:57:07;;;;;;;7.25;4.28;;;;;;;26.45;40.82;102095.41;4423331;32;20034;-68
2021/08/25 01:59:33;;;;;;;8.20;4.12;;;;;;;26.75;40.38;102102.41;4422931;32;20046;-68
2021/08/25 02:01:58;;;;;;;6.78;3.95;;;;;;;26.52;40.43;102100.69;4418007;32;20044;-68
2021/08/25 02:04:24;;;;;;;7.45;3.90;;;;;;;26.51;40.33;102097.00;4421451;32;20033;-68
2021/08/25 02:06:50;;;;;;;9.20;4.03;;;;;;;26.53;40.27;102091.50;4422130;32;20065;-68
2021/08/25 02:09:16;;;;;;;12.15;4.62;;;;;;;26.54;40.35;102090.19;4425366;32;20114;-68
2021/08/25 02:11:42;;;;;;;7.90;4.43;;;;;;;26.57;40.44;102091.28;4418919;32;20426;-68
2021/08/25 02:14:08;;;;;;;5.70;3.90;;;;;;;26.43;40.35;102089.34;4419471;32;20022;-68
2021/08/25 02:16:34;;;;;;;7.97;4.03;;;;;;;26.57;40.35;102082.59;4420833;32;20101;-68
2021/08/25 02:19:00;;;;;;;7.75;4.22;;;;;;;26.31;40.68;102084.81;4425739;32;20147;-68
2021/08/25 02:21:27;;;;;;;7.95;4.12;;;;;;;26.42;40.52;102079.12;4422120;32;20099;-68
2021/08/25 02:23:52;;;;;;;8.80;4.68;;;;;;;26.31;40.73;102074.06;4423567;32;20395;-68
2021/08/25 02:26:18;;;;;;;7.18;4.30;;;;;;;25.96;40.97;102075.66;4423240;32;20153;-68
2021/08/25 02:28:46;;;;;;;7.87;4.40;;;;;;;26.16;40.57;102076.34;4424062;32;20144;-68
2021/08/25 02:31:12;;;;;;;7.90;4.20;;;;;;;26.01;41.25;102072.06;4422995;32;20603;-68
2021/08/25 02:33:39;;;;;;;8.50;4.65;;;;;;;25.96;41.10;102070.69;4422991;32;20585;-68
2021/08/25 02:36:06;;;;;;;6.62;3.97;;;;;;;25.98;41.26;102065.22;4420918;32;20026;-68
2021/08/25 02:38:32;;;;;;;6.25;3.55;;;;;;;26.14;40.79;102060.87;4421682;32;20046;-68
2021/08/25 02:40:58;;;;;;;5.43;3.15;;;;;;;26.02;40.62;102062.91;4419996;32;20115;-68
2021/08/25 02:43:24;;;;;;;6.20;3.50;;;;;;;25.86;40.46;102051.22;4421725;32;20032;-68
2021/08/25 02:45:49;;;;;;;6.22;2.95;;;;;;;25.98;40.15;102053.66;4418626;32;20113;-68
2021/08/25 02:48:15;;;;;;;4.47;2.80;;;;;;;26.11;39.94;102047.47;4421835;32;20418;-68
2021/08/25 02:50:41;;;;;;;4.85;2.95;;;;;;;25.94;39.90;102043.66;4421866;32;20056;-68
2021/08/25 02:53:08;;;;;;;6.07;2.65;;;;;;;26.13;39.50;102041.94;4420183;32;20057;-68
2021/08/25 02:55:34;;;;;;;5.03;2.85;;;;;;;26.28;39.21;102039.66;4422677;32;20077;-68
2021/08/25 02:58:00;;;;;;;4.40;2.58;;;;;;;25.81;39.95;102037.53;4421912;32;20060;-68
2021/08/25 03:00:26;;;;;;;4.68;2.28;;;;;;;25.95;39.62;102034.47;4419442;32;20523;-68
2021/08/25 03:02:52;;;;;;;6.47;2.92;;;;;;;26.02;39.63;102033.25;4421490;32;20375;-68
2021/08/25 03:05:18;;;;;;;7.05;3.03;;;;;;;26.20;39.56;102032.84;4424177;32;20517;-68
2021/08/25 03:07:44;;;;;;;4.95;2.97;;;;;;;26.26;39.62;102030.75;4422972;32;20022;-68
2021/08/25 03:10:10;;;;;;;6.10;2.97;;;;;;;26.36;39.48;102029.22;4420488;32;20069;-68
2021/08/25 03:12:36;;;;;;;4.97;2.60;;;;;;;26.32;39.55;102028.69;4419192;32;20068;-68
2021/08/25 03:15:05;;;;;;;5.20;2.78;;;;;;;26.26;39.51;102028.66;4420126;32;20092;-68
2021/08/25 03:17:31;;;;;;;5.05;2.80;;;;;;;26.26;39.35;102022.87;4420517;32;20073;-68
2021/08/25 03:19:57;;;;;;;5.95;2.50;;;;;;;26.14;39.54;102020.47;4421059;32;20065;-68
2021/08/25 03:22:28;;;;;;;6.28;2.70;;;;;;;26.29;39.25;102015.28;4422370;32;20092;-68
2021/08/25 03:24:55;;;;;;;6.60;3.45;;;;;;;26.04;39.65;102019.87;4422268;32;20082;-68
2021/08/25 03:27:21;;;;;;;5.30;3.35;;;;;;;26.19;39.34;102011.81;4425429;32;20654;-68
2021/08/25 03:29:46;;;;;;;5.82;3.40;;;;;;;26.31;39.04;102021.31;4424779;32;20090;-68
2021/08/25 03:32:12;;;;;;;7.20;3.53;;;;;;;26.30;39.08;102013.97;4423874;32;21169;-68
2021/08/25 03:34:38;;;;;;;7.68;3.25;;;;;;;26.30;38.89;102005.31;4423705;32;20077;-68
2021/08/25 03:37:05;;;;;;;5.97;3.10;;;;;;;26.16;39.08;102007.09;4420881;32;20480;-68
2021/08/25 03:39:31;;;;;;;5.12;2.83;;;;;;;26.35;38.89;102004.56;4425314;32;20057;-68
2021/08/25 03:41:57;;;;;;;7.50;3.55;;;;;;;26.41;39.10;102000.38;4426489;32;20526;-68
2021/08/25 03:44:23;;;;;;;6.43;3.42;;;;;;;26.17;39.39;101996.34;4421831;32;20399;-68
2021/08/25 03:46:49;;;;;;;9.45;3.80;;;;;;;25.71;40.10;101996.56;4426442;32;20029;-68
2021/08/25 03:49:15;;;;;;;4.12;2.90;;;;;;;26.08;39.42;101988.69;4424687;32;20069;-68
2021/08/25 03:51:41;;;;;;;6.22;3.25;;;;;;;26.02;39.74;101993.66;4421883;32;20070;-68
2021/08/25 03:54:07;;;;;;;5.90;3.30;;;;;;;26.26;39.30;101994.00;4424552;32;20421;-68
2021/08/25 03:56:33;;;;;;;7.85;3.30;;;;;;;26.16;39.51;101988.97;4424849;32;20060;-68
2021/08/25 03:58:59;;;;;;;7.37;3.40;;;;;;;26.27;39.35;101989.03;4422281;32;20065;-68
2021/08/25 04:01:24;;;;;;;5.32;3.20;;;;;;;26.20;39.35;101987.44;4424805;32;20042;-68
2021/08/25 04:03:50;;;;;;;8.32;3.17;;;;;;;26.34;39.06;101977.78;4420352;32;20060;-68
2021/08/25 04:06:16;;;;;;;7.68;3.60;;;;;;;26.40;39.01;101984.38;4425301;32;20097;-68
2021/08/25 04:08:42;;;;;;;7.37;3.25;;;;;;;26.14;39.56;101975.06;4425476;32;20037;-68
2021/08/25 04:11:08;;;;;;;7.20;3.95;;;;;;;26.17;39.53;101974.03;4423184;32;20151;-68
2021/08/25 04:13:35;;;;;;;7.82;3.33;;;;;;;26.19;39.25;101964.84;4422962;32;20100;-68
2021/08/25 04:16:00;;;;;;;5.50;3.42;;;;;;;26.06;39.62;101962.44;4426870;32;20402;-68
2021/08/25 04:18:26;;;;;;;5.68;3.10;;;;;;;26.16;39.41;101966.69;4423566;32;20074;-68
2021/08/25 04:20:52;;;;;;;6.05;3.33;;;;;;;25.94;39.85;101954.22;4425125;32;20594;-68
2021/08/25 04:23:19;;;;;;;7.25;3.12;;;;;;;26.10;39.66;101954.34;4421868;32;20035;-68
2021/08/25 04:25:44;;;;;;;6.55;3.05;;;;;;;26.27;39.31;101958.09;4421131;32;20063;-68
2021/08/25 04:28:11;;;;;;;6.60;2.90;;;;;;;26.19;39.52;101964.84;4425814;32;20038;-68
2021/08/25 04:30:37;;;;;;;6.12;3.30;;;;;;;26.19;39.55;101967.75;4423204;32;20073;-68
2021/08/25 04:33:03;;;;;;;4.75;2.78;;;;;;;26.28;39.41;101968.31;4424681;32;20042;-68
2021/08/25 04:35:29;;;;;;;6.68;3.35;;;;;;;26.22;39.59;101970.38;4421633;32;20025;-68
2021/08/25 04:37:55;;;;;;;6.78;3.33;;;;;;;26.02;39.85;101973.47;4423865;32;20064;-68
2021/08/25 04:40:20;;;;;;;7.12;3.25;;;;;;;26.11;39.81;101972.44;4424250;32;20060;-68
2021/08/25 04:42:46;;;;;;;9.43;3.55;;;;;;;26.11;39.81;101983.97;4421249;32;20374;-68
2021/08/25 04:45:12;;;;;;;6.75;2.95;;;;;;;26.05;40.16;101971.63;4424782;32;20419;-68
2021/08/25 04:47:38;;;;;;;7.37;3.53;;;;;;;26.13;39.93;101973.50;4425475;32;20044;-68
2021/08/25 04:50:04;;;;;;;6.95;3.22;;;;;;;26.20;39.85;101980.88;4422144;32;20073;-68
2021/08/25 04:52:29;;;;;;;8.55;3.97;;;;;;;26.12;39.95;101979.78;4425682;32;20070;-68
2021/08/25 04:54:55;;;;;;;7.62;3.70;;;;;;;26.01;40.27;101968.97;4423702;32;20100;-68
2021/08/25 04:57:21;;;;;;;6.60;3.90;;;;;;;26.04;40.30;101970.03;4421177;32;21169;-68
2021/08/25 04:59:46;;;;;;;7.10;3.45;;;;;;;26.01;40.31;101971.09;4421389;32;20468;-68
2021/08/25 05:02:12;;;;;;;5.53;3.47;;;;;;;26.01;40.34;101966.09;4420269;32;20092;-68
2021/08/25 05:04:38;;;;;;;6.95;3.70;;;;;;;25.86;40.58;101961.78;4421716;32;20068;-68
2021/08/25 05:07:03;;;;;;;8.13;3.50;;;;;;;25.92;40.31;101968.38;4425056;32;20049;-68
2021/08/25 05:09:29;;;;;;;8.20;3.97;;;;;;;25.86;40.68;101964.69;4423711;32;20029;-68
2021/08/25 05:11:56;;;;;;;7.40;3.40;;;;;;;25.73;40.99;101961.44;4418491;32;20025;-68
2021/08/25 05:14:22;;;;;;;7.82;4.20;;;;;;;25.74;40.97;101957.28;4420629;32;20037;-68
2021/08/25 05:16:47;;;;;;;8.55;3.78;;;;;;;25.80;41.27;101961.75;4425910;32;20056;-68
2021/08/25 05:19:13;;;;;;;7.68;4.43;;;;;;;25.68;41.28;101962.22;4423922;32;20038;-68
2021/08/25 05:21:38;;;;;;;10.25;4.47;;;;;;;25.88;41.12;101974.38;4421544;32;20029;-68
2021/08/25 05:24:05;;;;;;;9.10;4.60;;;;;;;25.76;41.22;101969.06;4419672;32;20404;-68
2021/08/25 05:26:31;;;;;;;7.72;4.32;;;;;;;25.74;41.44;101971.69;4417641;32;20026;-68
2021/08/25 05:28:59;;;;;;;9.07;4.50;;;;;;;25.76;41.33;101971.94;4424329;32;20120;-68
2021/08/25 05:31:25;;;;;;;7.28;4.18;;;;;;;25.72;nan;101968.53;4419999;32;20116;-68
2021/08/25 05:33:52;;;;;;;7.93;4.35;;;;;;;25.83;41.46;101971.47;4422008;32;20030;-68
2021/08/25 05:36:18;;;;;;;10.80;4.53;;;;;;;25.77;41.43;101971.44;4422283;32;20081;-68
2021/08/25 05:38:44;;;;;;;7.47;4.22;;;;;;;25.57;41.73;101965.00;4420736;32;20447;-68
2021/08/25 05:41:09;;;;;;;7.57;4.80;;;;;;;25.77;41.69;101970.66;4421846;32;20431;-68
2021/08/25 05:43:35;;;;;;;8.60;4.30;;;;;;;26.01;41.61;101971.84;4422286;32;20197;-70
2021/08/25 05:46:02;;;;;;;8.98;4.50;;;;;;;26.11;41.63;101975.34;4424463;32;20350;-68
2021/08/25 05:48:28;;;;;;;7.82;4.55;;;;;;;26.02;41.75;101975.53;4422399;32;20041;-68
2021/08/25 05:50:54;;;;;;;8.35;4.03;;;;;;;25.97;41.56;101977.06;4422911;32;20042;-68
2021/08/25 05:53:20;;;;;;;6.87;4.10;;;;;;;25.78;41.44;101978.00;4421231;32;20134;-68
2021/08/25 05:55:46;;;;;;;5.93;3.65;;;;;;;25.78;41.47;101970.16;4422142;32;20089;-68
2021/08/25 05:58:11;;;;;;;6.68;3.78;;;;;;;25.97;nan;101964.72;4421354;32;20101;-68
2021/08/25 06:00:37;;;;;;;7.28;3.50;;;;;;;26.23;40.72;101971.19;4421802;32;20545;-68
2021/08/25 06:03:04;;;;;;;9.63;3.85;;;;;;;26.24;40.86;101969.88;4420836;32;20123;-68
2021/08/25 06:05:29;;;;;;;8.23;4.57;;;;;;;26.13;41.82;101969.81;4423159;32;20042;-68
2021/08/25 06:07:56;;;;;;;7.47;4.72;;;;;;;26.20;42.50;101970.09;4418596;32;20102;-68
2021/08/25 06:10:21;;;;;;;7.25;4.43;;;;;;;25.95;42.55;101973.13;4420668;32;20050;-68
2021/08/25 06:12:48;;;;;;;8.88;4.55;;;;;;;25.94;42.82;101974.41;4416951;32;20458;-68
2021/08/25 06:15:13;;;;;;;8.15;4.22;;;;;;;26.12;42.22;101969.03;4420780;32;20351;-68
2021/08/25 06:17:40;;;;;;;7.15;4.32;;;;;;;26.01;42.30;101976.88;4423534;32;21193;-68
2021/08/25 06:20:06;;;;;;;8.05;3.92;;;;;;;25.52;42.86;101971.53;4422598;32;20551;-68
2021/08/25 06:22:32;;;;;;;5.35;3.40;;;;;;;25.98;42.39;101972.13;4420057;32;20044;-68
2021/08/25 06:24:58;;;;;;;8.07;4.07;;;;;;;25.80;42.22;101981.94;4423138;32;20064;-68
2021/08/25 06:27:24;;;;;;;10.90;3.70;;;;;;;26.06;41.76;101976.09;4420288;32;20017;-68
2021/08/25 06:29:50;;;;;;;6.93;2.90;;;;;;;26.01;42.14;101979.75;4420173;32;20369;-68
2021/08/25 06:32:16;;;;;;;6.80;3.05;;;;;;;26.35;41.19;101979.34;4419220;32;20099;-68
2021/08/25 06:34:42;;;;;;;7.12;2.95;;;;;;;26.31;41.15;101972.25;4421854;32;20056;-68
2021/08/25 06:37:08;;;;;;;5.57;2.35;;;;;;;26.37;40.79;101973.88;4423055;32;20077;-68
2021/08/25 06:39:34;;;;;;;5.90;2.35;;;;;;;26.24;40.95;101979.31;4419577;32;20046;-68
2021/08/25 06:42:00;;;;;;;4.62;2.08;;;;;;;26.53;40.55;101980.97;4417634;32;20068;-68
2021/08/25 06:44:26;;;;;;;5.22;2.20;;;;;;;26.42;40.54;101973.06;4419280;32;20143;-68
2021/08/25 06:46:52;;;;;;;8.23;2.80;;;;;;;26.35;40.77;101979.34;4417742;32;20399;-68
2021/08/25 06:49:18;;;;;;;4.32;2.15;;;;;;;26.47;40.41;101971.50;4422802;32;20034;-68
2021/08/25 06:51:44;;;;;;;3.28;2.00;;;;;;;26.62;40.17;101972.91;4422483;32;20155;-68
2021/08/25 06:54:10;;;;;;;3.58;2.20;;;;;;;26.22;40.89;101975.38;4423247;32;20420;-68
2021/08/25 06:56:36;;;;;;;4.05;2.20;;;;;;;26.45;40.56;101971.25;4421412;32;20388;-68
2021/08/25 06:59:02;;;;;;;3.42;2.10;;;;;;;26.66;40.26;101978.44;4419695;32;20057;-68
2021/08/25 07:01:27;;;;;;;7.68;2.95;;;;;;;26.60;40.24;101977.62;4422837;32;20090;-69
2021/08/25 07:03:53;;;;;;;4.20;2.37;;;;;;;26.44;40.58;101981.22;4426245;32;20053;-68
2021/08/25 07:06:19;;;;;;;5.85;2.67;;;;;;;26.70;40.04;101978.97;4422246;32;20066;-71
2021/08/25 07:08:46;;;;;;;6.95;2.70;;;;;;;26.52;40.42;101979.41;4426237;32;20103;-68
2021/08/25 07:11:12;;;;;;;5.12;3.12;;;;;;;26.61;40.48;101979.19;4424558;32;20025;-69
2021/08/25 07:13:38;;;;;;;7.18;3.62;;;;;;;26.28;40.83;101979.88;4423323;32;20049;-68
2021/08/25 07:16:07;;;;;;;5.95;3.12;;;;;;;26.55;40.56;101969.72;4424336;32;20033;-68
2021/08/25 07:18:33;;;;;;;5.47;3.12;;;;;;;26.72;40.15;101973.47;4422157;32;20022;-68
2021/08/25 07:20:59;;;;;;;5.37;3.22;;;;;;;26.95;39.62;101972.97;4427146;32;20026;-68
2021/08/25 07:23:25;;;;;;;5.97;3.25;;;;;;;26.87;39.64;101985.56;4423269;32;20087;-68
2021/08/25 07:25:51;;;;;;;7.93;3.33;;;;;;;26.81;39.66;101978.97;4422287;32;20490;-68
2021/08/25 07:28:17;;;;;;;4.28;2.97;;;;;;;26.94;39.47;101979.28;4425594;32;20172;-68
2021/08/25 07:30:42;;;;;;;4.50;2.92;;;;;;;27.02;39.13;101986.09;4421611;32;20418;-68
2021/08/25 07:33:13;;;;;;;4.78;3.10;;;;;;;27.33;38.49;101988.00;4423323;32;20086;-68
2021/08/25 07:35:40;;;;;;;5.12;2.87;;;;;;;27.62;37.85;101991.12;4424003;32;20040;-68
2021/08/25 07:38:06;;;;;;;4.00;2.17;;;;;;;27.21;38.32;101993.75;4423342;32;20673;-68
2021/08/25 07:40:32;;;;;;;5.53;2.80;;;;;;;27.00;38.20;101983.75;4422477;32;20029;-68
2021/08/25 07:42:57;;;;;;;4.60;2.03;;;;;;;27.02;38.30;101986.09;4424769;32;20061;-68
2021/08/25 07:45:23;;;;;;;7.05;2.30;;;;;;;27.29;37.53;101996.13;4425972;32;20097;-68
2021/08/25 07:47:49;;;;;;;5.25;2.20;;;;;;;26.77;38.37;101987.13;4425231;32;20062;-68
2021/08/25 07:50:14;;;;;;;3.78;2.25;;;;;;;27.26;37.75;101983.53;4425880;32;20056;-68
2021/08/25 07:52:40;;;;;;;2.72;1.48;;;;;;;27.20;37.91;101986.41;4424091;32;20421;-68
2021/08/25 07:55:07;;;;;;;7.18;1.73;;;;;;;27.30;37.14;101986.16;4425732;32;20080;-68
2021/08/25 07:57:33;;;;;;;4.25;2.10;;;;;;;26.73;38.07;101995.25;4425293;32;20033;-68
2021/08/25 07:59:59;;;;;;;2.53;1.60;;;;;;;27.20;37.18;101989.28;4423214;32;20137;-68
2021/08/25 08:02:25;;;;;;;3.55;1.80;;;;;;;27.34;36.90;101987.47;4419888;32;20109;-68
2021/08/25 08:04:50;;;;;;;3.78;1.60;;;;;;;27.62;36.53;101994.03;4424577;32;20073;-68
2021/08/25 08:07:16;;;;;;;2.50;1.20;;;;;;;27.34;36.65;101986.69;4425344;32;20161;-68
2021/08/25 08:09:42;;;;;;;4.18;2.00;;;;;;;27.67;36.21;101990.31;4419195;32;20093;-68
2021/08/25 08:12:08;;;;;;;5.62;2.08;;;;;;;27.91;35.95;101993.47;4424120;32;20085;-68
2021/08/25 08:14:34;;;;;;;5.03;2.45;;;;;;;27.79;36.18;101997.66;4418738;32;20436;-68
2021/08/25 08:17:01;;;;;;;4.72;2.90;;;;;;;27.69;36.25;101987.69;4419273;32;20064;-68
2021/08/25 08:19:29;;;;;;;6.28;2.60;;;;;;;28.03;35.81;101985.53;4424585;32;20097;-69
2021/08/25 08:21:55;;;;;;;5.18;2.67;;;;;;;27.93;35.63;101990.03;4422629;32;20085;-68
2021/08/25 08:24:21;;;;;;;7.05;2.95;;;;;;;28.36;35.05;101988.28;4421488;32;20095;-69
2021/08/25 08:26:47;;;;;;;5.18;3.58;;;;;;;28.02;35.28;101981.06;4421697;32;20034;-69
2021/08/25 08:29:14;;;;;;;12.37;3.65;;;;;;;28.26;35.09;101982.00;4419609;32;20418;-69
2021/08/25 08:31:40;;;;;;;7.00;3.87;;;;;;;28.46;34.74;101989.59;4420087;32;20091;-69
2021/08/25 08:34:06;;;;;;;3.58;2.83;;;;;;;28.63;34.66;101973.69;4422977;32;20085;-68
2021/08/25 08:36:32;;;;;;;4.12;3.00;;;;;;;28.48;34.64;101967.47;4423005;32;20387;-68
2021/08/25 08:38:59;;;;;;;4.47;3.10;;;;;;;28.94;33.74;101981.12;4423571;32;20452;-68
2021/08/25 08:41:25;;;;;;;3.12;2.22;;;;;;;29.08;33.86;101977.09;4418806;32;20045;-68
2021/08/25 08:43:52;;;;;;;5.03;2.20;;;;;;;29.20;33.44;101975.69;4422064;32;20077;-68
2021/08/25 08:46:20;;;;;;;3.15;2.10;;;;;;;29.40;33.06;101981.06;4419796;32;20073;-68
2021/08/25 08:48:48;;;;;;;4.57;2.05;;;;;;;28.97;33.81;101985.84;4418005;32;20053;-68
2021/08/25 08:51:18;;;;;;;5.37;2.10;;;;;;;29.31;33.33;101998.78;4419121;32;20465;-68
2021/08/25 08:53:46;;;;;;;3.42;1.65;;;;;;;29.18;33.49;101992.06;4419571;32;20053;-68
2021/08/25 08:56:11;;;;;;;1.92;1.37;;;;;;;28.80;34.31;101990.97;4419385;32;20427;-68
2021/08/25 08:58:38;;;;;;;5.43;1.30;;;;;;;28.90;34.18;101993.00;4421164;32;20198;-68
2021/08/25 09:01:04;;;;;;;4.28;1.25;;;;;;;28.88;34.05;101980.38;4422471;32;20026;-68
2021/08/25 09:03:34;;;;;;;2.05;1.10;;;;;;;29.09;33.83;101981.59;4419904;32;20101;-68
2021/08/25 09:06:01;;;;;;;1.98;1.00;;;;;;;29.70;33.09;101986.84;4419997;32;20065;-68
2021/08/25 09:08:30;;;;;;;5.10;1.35;;;;;;;29.31;33.77;101986.41;4421996;32;20088;-68
2021/08/25 09:13:49;;;;;;;3.17;1.45;;;;;;;29.49;33.89;101989.41;3999450;31;15017707;-68
2021/08/25 09:16:35;;;;;;;5.72;1.87;;;;;;;29.49;33.89;101989.41;4448203;32;20084;-67
2021/08/25 09:19:04;;;;;;;6.62;3.12;;;;;;;29.67;33.21;101977.12;4433578;32;20143;-67
2021/08/25 09:21:33;;;;;;;2.62;1.25;;;;;;;29.67;33.45;101985.03;4447477;32;20387;-69
2021/08/25 09:23:59;;;;;;;1.55;0.90;;;;;;;30.18;32.53;101981.00;4452400;32;20046;-67
2021/08/25 09:26:24;;;;;;;5.75;1.37;;;;;;;30.21;32.32;101977.06;4448965;32;20100;-69
2021/08/25 09:28:51;;;;;;;3.30;0.80;;;;;;;30.61;31.34;101975.97;4436399;32;20099;-67
2021/08/25 09:31:18;;;;;;;1.83;0.80;;;;;;;30.70;31.23;101978.50;4444551;32;20567;-67
2021/08/25 09:33:46;;;;;;;4.05;0.70;;;;;;;30.68;31.10;101981.94;4450897;32;20025;-67
2021/08/25 09:36:15;;;;;;;7.78;2.08;;;;;;;30.86;30.78;101976.72;4447036;32;20048;-67
2021/08/25 09:38:54;;;;;;;2.17;0.60;;;;;;;30.90;30.99;101974.25;4448949;32;20493;-67
2021/08/25 09:41:20;;;;;;;4.65;0.90;;;;;;;30.87;30.89;101981.19;4448576;32;20088;-67
2021/08/25 09:43:48;;;;;;;1.90;1.00;;;;;;;30.72;31.28;101976.63;4435756;32;20072;-67
2021/08/25 09:46:29;;;;;;;4.65;1.08;;;;;;;30.81;31.31;101978.38;4447326;32;20299;-68
2021/08/25 09:48:57;;;;;;;5.47;1.30;;;;;;;30.85;31.21;101970.09;4449663;32;20041;-68
2021/08/25 09:51:25;;;;;;;3.33;1.20;;;;;;;30.84;31.15;101972.22;4445041;32;20037;-68
2021/08/25 09:54:04;;;;;;;6.82;1.70;;;;;;;30.66;31.49;101972.22;4448187;32;20085;-68
2021/08/25 09:56:32;;;;;;;2.45;0.85;;;;;;;30.67;31.64;101968.75;4451747;32;20072;-68
2021/08/25 09:58:58;;;;;;;3.83;1.40;;;;;;;30.17;32.17;101971.53;4446956;32;20081;-68
2021/08/25 10:01:24;;;;;;;3.95;1.60;;;;;;;29.74;33.01;101969.94;4447571;32;20094;-68
2021/08/25 10:03:51;;;;;;;4.28;1.23;;;;;;;30.06;32.42;101970.91;4448657;32;20141;-68
2021/08/25 10:06:18;;;;;;;2.90;1.30;;;;;;;30.26;32.06;101964.59;4446673;32;20066;-68
2021/08/25 10:08:45;;;;;;;5.25;1.20;;;;;;;30.26;32.13;101962.47;4448086;32;20088;-68
2021/08/25 10:11:13;;;;;;;5.65;1.30;;;;;;;30.36;32.10;101957.06;4447089;32;20905;-68
2021/08/25 10:13:39;;;;;;;5.07;1.42;;;;;;;30.10;32.72;101956.84;4444502;32;20076;-68
2021/08/25 10:16:09;;;;;;;4.60;1.73;;;;;;;29.20;34.13;101963.31;4442773;32;20033;-68
2021/08/25 10:18:40;;;;;;;9.48;1.98;;;;;;;29.93;33.17;101951.25;4448880;32;20100;-68
2021/08/25 10:24:08;;;;;;;3.33;1.58;;;;;;;30.43;32.66;101950.62;3979137;32;15153213;-68
2021/08/25 10:29:33;;;;;;;5.43;2.05;;;;;;;30.23;33.36;101945.34;3996574;31;15015592;-69
2021/08/25 10:34:38;;;;;;;6.87;2.80;;;;;;;31.05;31.82;101948.37;3955984;32;15724542;-67
2021/08/25 10:39:56;;;;;;;3.28;2.60;;;;;;;31.28;31.15;101943.78;3994249;31;15024030;-68
2021/08/25 10:48:36;;;;;;;4.53;2.10;;;;;;;32.03;29.99;101945.00;3994603;31;15084134;-69
2021/08/25 10:51:02;;;;;;;3.97;2.00;;;;;;;32.03;29.99;101945.00;4450138;32;20059;-67
2021/08/25 10:58:49;;;;;;;7.62;2.85;;;;;;;31.76;30.49;101928.84;3981029;32;15088933;-67
2021/08/25 11:06:45;;;;;;;4.85;2.45;;;;;;;31.69;30.62;101923.72;3984814;32;15037153;-67
2021/08/25 11:22:44;;;;;;;4.82;2.12;;;;;;;32.96;28.64;101926.44;3982323;32;15023740;-68
2021/08/25 11:27:52;;;;;;;11.45;2.20;;;;;;;33.10;28.51;101925.34;3979597;31;15032886;-68
2021/08/25 11:32:57;;;;;;;4.93;2.87;;;;;;;32.33;29.92;101914.16;3983838;32;15026276;-68
2021/08/25 11:38:02;;;;;;;5.37;2.55;;;;;;;31.89;30.46;101909.28;3954677;32;15739669;-68
2021/08/25 11:40:31;;;;;;;4.57;2.45;;;;;;;31.89;30.46;101909.28;4433858;32;20066;-68
2021/08/25 11:43:07;;;;;;;5.70;1.60;;;;;;;31.79;30.50;101905.25;4419885;32;20078;-68
2021/08/25 11:45:34;;;;;;;4.93;2.00;;;;;;;30.96;31.61;101900.16;4435575;32;20133;-68
2021/08/25 11:48:02;;;;;;;4.82;2.15;;;;;;;31.21;31.28;101904.47;4434429;32;20085;-68
2021/08/25 11:50:30;;;;;;;4.00;1.80;;;;;;;31.02;31.64;101900.06;4433542;32;20056;-68
2021/08/25 11:52:59;;;;;;;6.03;2.28;;;;;;;31.05;31.62;101896.84;4432228;32;20060;-68
2021/08/25 11:55:25;;;;;;;2.40;1.92;;;;;;;30.93;31.75;101897.56;4432781;32;20105;-68
2021/08/25 11:57:54;;;;;;;6.25;2.28;;;;;;;31.07;31.66;101891.22;4436287;32;20045;-68
2021/08/25 12:00:22;;;;;;;6.18;2.20;;;;;;;31.61;30.92;101893.69;4432762;32;20461;-68
2021/08/25 12:05:30;;;;;;;3.47;1.90;;;;;;;32.57;29.44;101887.66;3999693;31;15016364;-68
2021/08/25 12:08:06;;;;;;;2.65;2.22;;;;;;;32.57;29.44;101887.66;4457185;32;20045;-68
2021/08/25 12:10:34;;;;;;;2.65;1.90;;;;;;;32.52;29.44;101888.56;4455181;32;20104;-68
2021/08/25 12:13:01;;;;;;;4.05;2.20;;;;;;;32.25;29.61;101887.06;4455596;32;20092;-68
2021/08/25 12:15:48;;;;;;;5.95;1.90;;;;;;;32.21;29.12;101883.69;4458241;32;20386;-68
2021/08/25 12:18:15;;;;;;;5.60;2.12;;;;;;;33.25;27.78;101888.31;4454874;32;20363;-68